Ocean Beaut — WDD7485 — position and weather

sailwx.info

Track history (hours):
 
Tides and Currents Weather Stations Pressure Air Temp Water Temp Dewpoint Dewpoint Depression Visibility Wind Speed Wind Dir Waves Ship Positions

Ocean Beaut

Owner: John Moreland Fishing Inc., Astoria, OR. More information available from US FCC via Universal Licensing System.

Last reported at 2017-Nov-19 13:59 UTC. Time now 2017-Nov-19 14:22 UTC.
Position N 46°12' W 123°48'.

Length 20 m.

Type: Fishing. MMSI: 367187080.

Date/timePositionNaut miles runAvg speedWind from/ knotsBaromVisibWave heightAir tempDewpointWater temp
2017-Nov-19 13:59N 46°12' W 123°48'0 0.0
2017-Nov-19 13:29N 46°12' W 123°48'0 0.0
2017-Nov-19 12:59N 46°12' W 123°48'0 0.0
2017-Nov-19 12:29N 46°12' W 123°48'0 0.0
2017-Nov-19 11:59N 46°12' W 123°48'0 0.0
2017-Nov-19 11:29N 46°12' W 123°48'0 0.0
2017-Nov-19 10:59N 46°12' W 123°48'0 0.0
2017-Nov-19 10:29N 46°12' W 123°48'0 0.0
2017-Nov-19 09:59N 46°12' W 123°48'0 0.0
2017-Nov-19 09:17N 46°12' W 123°48'0 0.0
2017-Nov-19 08:59N 46°12' W 123°48'0 0.0
2017-Nov-19 08:29N 46°12' W 123°48'0 0.0
2017-Nov-19 07:59N 46°12' W 123°48'0 0.0
2017-Nov-19 07:29N 46°12' W 123°48'0 0.0
2017-Nov-19 06:59N 46°12' W 123°48'0 0.0
2017-Nov-19 06:29N 46°12' W 123°48'0 0.0
2017-Nov-19 05:59N 46°12' W 123°48'0 0.0
2017-Nov-19 05:29N 46°12' W 123°48'0 0.0
2017-Nov-19 04:59N 46°12' W 123°48'0 0.0
2017-Nov-19 04:29N 46°12' W 123°48'0 0.0
2017-Nov-19 03:59N 46°12' W 123°48'0 0.0
2017-Nov-19 03:29N 46°12' W 123°48'0 0.0
2017-Nov-19 02:59N 46°12' W 123°48'0 0.0
2017-Nov-19 02:30N 46°12' W 123°48'0 0.0
2017-Nov-19 01:59N 46°12' W 123°48'0 0.0
2017-Nov-19 01:29N 46°12' W 123°48'0 0.0
2017-Nov-19 00:59N 46°12' W 123°48'0 0.0
2017-Nov-19 00:29N 46°12' W 123°48'0 0.0
2017-Nov-19 00:00N 46°12' W 123°48'0 0.0
2017-Nov-18 23:29N 46°12' W 123°48'0 0.0
2017-Nov-18 22:59N 46°12' W 123°48'0 0.0
2017-Nov-18 22:29N 46°12' W 123°48'0 0.0
2017-Nov-18 21:59N 46°12' W 123°48'0 0.0
2017-Nov-18 21:29N 46°12' W 123°48'0 0.0
2017-Nov-18 20:56N 46°12' W 123°48'0 1.1
2017-Nov-18 20:30N 46°12' W 123°49'3 6.1
2017-Nov-18 20:00N 46°11' W 123°53'4 7.6
2017-Nov-18 19:30N 46°13' W 123°58'4 8.9
2017-Nov-18 19:00N 46°15' W 124°04'4 8.5
2017-Nov-18 18:30N 46°13' W 124°09'4 7.5
2017-Nov-18 18:00N 46°11' W 124°14'4 8.0
2017-Nov-18 17:30N 46°10' W 124°19'4 8.1
2017-Nov-18 17:00N 46°09' W 124°25'6 8.0
2017-Nov-18 16:17N 46°08' W 124°33'2 7.9
2017-Nov-18 16:00N 46°08' W 124°36'4 7.9
2017-Nov-18 15:30N 46°07' W 124°42'4 7.7
2017-Nov-18 15:00N 46°06' W 124°47'2 4.5
2017-Nov-18 14:30N 46°05' W 124°50'0 0.9
2017-Nov-18 14:00N 46°05' W 124°51'1 2.1
2017-Nov-18 13:28N 46°04' W 124°51'1 2.3
2017-Nov-18 12:50N 46°02' W 124°51'1 2.2
2017-Nov-18 12:30N 46°02' W 124°50'1 2.2
2017-Nov-18 11:58N 46°00' W 124°50'1 2.3
2017-Nov-18 11:30N 45°59' W 124°49'1 2.2
2017-Nov-18 11:00N 45°58' W 124°48'1 2.2
2017-Nov-18 10:30N 45°58' W 124°47'1 2.2
2017-Nov-18 10:00N 45°57' W 124°46'1 2.3
2017-Nov-18 09:24N 45°56' W 124°45'1 2.3
2017-Nov-18 09:00N 45°55' W 124°46'1 2.3
2017-Nov-18 08:31N 45°54' W 124°46'1 2.2
2017-Nov-18 08:00N 45°53' W 124°46'2 3.5
2017-Nov-18 07:30N 45°51' W 124°46'1 2.1
2017-Nov-18 06:59N 45°50' W 124°46'0 0.5
2017-Nov-18 06:30N 45°50' W 124°45'1 2.3
2017-Nov-18 05:57N 45°49' W 124°46'1 2.3
2017-Nov-18 05:29N 45°48' W 124°46'1 2.2
2017-Nov-18 04:59N 45°47' W 124°45'1 2.4
2017-Nov-18 04:30N 45°45' W 124°46'1 2.4
2017-Nov-18 03:59N 45°44' W 124°46'1 2.3
2017-Nov-18 03:30N 45°43' W 124°46'1 2.3
2017-Nov-18 03:00N 45°42' W 124°45'1 2.3
2017-Nov-18 02:30N 45°42' W 124°44'1 2.8
2017-Nov-18 02:00N 45°41' W 124°42'2 3.2
2017-Nov-18 01:15N 45°38' W 124°43'12 1.7
2017-Nov-17 18:30N 45°50' W 124°46'2 4.6
2017-Nov-17 18:00N 45°52' W 124°45'0 0.4
2017-Nov-17 17:25N 45°52' W 124°46'1 1.6
2017-Nov-17 17:00N 45°53' W 124°46'1 2.0
2017-Nov-17 16:16N 45°54' W 124°46'1 2.1
2017-Nov-17 15:55N 45°55' W 124°46'1 2.2
2017-Nov-17 15:30N 45°56' W 124°45'1 2.0
2017-Nov-17 14:47N 45°57' W 124°46'1 2.2
2017-Nov-17 14:13N 45°58' W 124°47'1 2.3
2017-Nov-17 14:00N 45°59' W 124°47'1 2.5
2017-Nov-17 13:30N 45°60' W 124°48'1 2.3
2017-Nov-17 12:59N 46°01' W 124°49'1 2.3
2017-Nov-17 12:31N 46°02' W 124°50'1 2.5
2017-Nov-17 12:00N 46°03' W 124°51'1 2.3
2017-Nov-17 11:30N 46°04' W 124°51'8 6.7
2017-Nov-17 10:15N 46°12' W 124°46'2 7.5
2017-Nov-17 10:00N 46°14' W 124°46'4 7.2
2017-Nov-17 09:30N 46°17' W 124°44'4 6.9
2017-Nov-17 08:52N 46°21' W 124°42'2 6.9
2017-Nov-17 08:30N 46°23' W 124°41'3 6.8
2017-Nov-17 08:00N 46°27' W 124°39'3 6.6
2017-Nov-17 07:30N 46°30' W 124°37'3 6.4
2017-Nov-17 07:00N 46°32' W 124°35'0 0.9
2017-Nov-17 06:30N 46°33' W 124°35'1 1.4
2017-Nov-17 05:59N 46°33' W 124°36'1 2.3
2017-Nov-17 05:30N 46°32' W 124°37'1 2.2
2017-Nov-17 05:00N 46°31' W 124°38'1 2.2
2017-Nov-17 04:30N 46°30' W 124°39'1 2.2
2017-Nov-17 04:00N 46°31' W 124°41'1 2.1
2017-Nov-17 03:28N 46°32' W 124°41'1 2.3
2017-Nov-17 03:01N 46°33' W 124°41'1 2.7
2017-Nov-17 02:30N 46°34' W 124°40'0 0.9
2017-Nov-17 02:00N 46°34' W 124°40'1 2.1
2017-Nov-17 01:30N 46°33' W 124°41'1 2.3
2017-Nov-17 01:00N 46°32' W 124°42'1 2.2
2017-Nov-17 00:26N 46°31' W 124°41'1 2.3
2017-Nov-16 23:59N 46°30' W 124°40'2 3.4
2017-Nov-16 23:30N 46°29' W 124°39'4 7.9
2017-Nov-16 22:59N 46°26' W 124°34'4 8.8
2017-Nov-16 22:30N 46°24' W 124°29'5 9.0
2017-Nov-16 22:00N 46°22' W 124°23'4 8.7
2017-Nov-16 21:30N 46°19' W 124°18'4 8.7
2017-Nov-16 21:00N 46°16' W 124°13'4 8.1
2017-Nov-16 20:30N 46°14' W 124°09'4 8.1
2017-Nov-16 20:00N 46°15' W 124°03'4 8.0
2017-Nov-16 19:30N 46°14' W 123°58'4 7.9
2017-Nov-16 19:01N 46°12' W 123°53'1 2.6
2017-Nov-16 18:30N 46°11' W 123°51'0 0.0
2017-Nov-16 17:59N 46°11' W 123°51'1 1.6
2017-Nov-16 17:28N 46°12' W 123°50'0 0.0
2017-Nov-16 17:01N 46°12' W 123°50'2 2.9
2017-Nov-16 16:29N 46°12' W 123°48'0 0.0
2017-Nov-16 15:59N 46°12' W 123°48'0 0.0
2017-Nov-16 15:26N 46°12' W 123°48'0 0.0
2017-Nov-16 14:59N 46°12' W 123°48'0 0.0
2017-Nov-16 14:29N 46°12' W 123°48'0 0.0
2017-Nov-16 13:59N 46°12' W 123°48'0 0.0
2017-Nov-16 13:29N 46°12' W 123°48'0 0.0
2017-Nov-16 12:59N 46°12' W 123°48'0 0.0
2017-Nov-16 12:29N 46°12' W 123°48'0 0.0
2017-Nov-16 11:59N 46°12' W 123°48'0 0.0
2017-Nov-16 11:29N 46°12' W 123°48'0 0.0
2017-Nov-16 10:53N 46°12' W 123°48'0 0.0
2017-Nov-16 10:29N 46°12' W 123°48'0 0.0
2017-Nov-16 09:59N 46°12' W 123°48'0 0.0
2017-Nov-16 09:29N 46°12' W 123°48'0 0.0
2017-Nov-16 08:59N 46°12' W 123°48'0 0.0
2017-Nov-16 08:29N 46°12' W 123°48'0 0.0
2017-Nov-16 07:59N 46°12' W 123°48'0 0.0
2017-Nov-16 07:29N 46°12' W 123°48'0 0.0
2017-Nov-16 06:53N 46°12' W 123°48'0 0.0
2017-Nov-16 06:29N 46°12' W 123°48'0 0.0
2017-Nov-16 05:59N 46°12' W 123°48'0 0.0
2017-Nov-16 05:26N 46°12' W 123°48'0 0.0
2017-Nov-16 04:59N 46°12' W 123°48'0 0.0
2017-Nov-16 04:29N 46°12' W 123°48'0 0.0
2017-Nov-16 03:59N 46°12' W 123°48'0 0.0
2017-Nov-16 03:29N 46°12' W 123°48'0 0.0
2017-Nov-16 02:59N 46°12' W 123°48'0 0.0
2017-Nov-16 02:29N 46°12' W 123°48'0 0.0
2017-Nov-16 01:59N 46°12' W 123°48'0 0.0
2017-Nov-16 01:29N 46°12' W 123°48'0 0.0
2017-Nov-16 00:59N 46°12' W 123°48'0 0.0
2017-Nov-16 00:29N 46°12' W 123°48'0 0.0
2017-Nov-15 23:59N 46°12' W 123°48'0 0.0
2017-Nov-15 23:29N 46°12' W 123°48'0 0.0
2017-Nov-15 22:59N 46°12' W 123°48'0 0.0
2017-Nov-15 22:29N 46°12' W 123°48'0 0.0
2017-Nov-15 21:59N 46°12' W 123°48'0 0.0
2017-Nov-15 21:17N 46°12' W 123°48'0 0.0
2017-Nov-15 20:59N 46°12' W 123°48'0 0.0
2017-Nov-15 20:29N 46°12' W 123°48'0 0.0
2017-Nov-15 19:59N 46°12' W 123°48'0 0.0
2017-Nov-15 19:20N 46°12' W 123°48'0 0.0
2017-Nov-15 18:53N 46°12' W 123°48'0 0.0
2017-Nov-15 18:29N 46°12' W 123°48'0 0.0
2017-Nov-15 17:59N 46°12' W 123°48'0 0.0
2017-Nov-15 17:20N 46°12' W 123°48'0 0.0
2017-Nov-15 16:59N 46°12' W 123°48'0 0.0
2017-Nov-15 16:26N 46°12' W 123°48'0 0.0
2017-Nov-15 15:59N 46°12' W 123°48'0 0.0
2017-Nov-15 15:29N 46°12' W 123°48'0 0.0
2017-Nov-15 14:59N 46°12' W 123°48'0 0.0
2017-Nov-15 14:29N 46°12' W 123°48'0 0.0
2017-Nov-15 13:59N 46°12' W 123°48'0 0.0
2017-Nov-15 13:29N 46°12' W 123°48'0 0.0
2017-Nov-15 12:59N 46°12' W 123°48'0 0.0
2017-Nov-15 12:29N 46°12' W 123°48'0 0.0
2017-Nov-15 11:59N 46°12' W 123°48'0 0.0
2017-Nov-15 11:29N 46°12' W 123°48'0 0.0
2017-Nov-15 10:59N 46°12' W 123°48'0 0.0
2017-Nov-15 10:29N 46°12' W 123°48'0 0.0
2017-Nov-15 09:59N 46°12' W 123°48'0 0.0
2017-Nov-15 09:29N 46°12' W 123°48'0 0.0
2017-Nov-15 08:59N 46°12' W 123°48'0 0.0
2017-Nov-15 08:29N 46°12' W 123°48'0 0.0
2017-Nov-15 07:59N 46°12' W 123°48'0 0.0
2017-Nov-15 07:29N 46°12' W 123°48'0 0.0
2017-Nov-15 06:56N 46°12' W 123°48'0 0.0
2017-Nov-15 06:29N 46°12' W 123°48'0 0.0
2017-Nov-15 05:56N 46°12' W 123°48'0 0.0
2017-Nov-15 05:29N 46°12' W 123°48'0 0.0
2017-Nov-15 04:59N 46°12' W 123°48'0 0.0
2017-Nov-15 04:29N 46°12' W 123°48'0 0.0
2017-Nov-15 03:59N 46°12' W 123°48'0 0.0
2017-Nov-15 03:29N 46°12' W 123°48'0 0.0
2017-Nov-15 02:59N 46°12' W 123°48'0 0.0
2017-Nov-15 02:14N 46°12' W 123°48'0 0.0
2017-Nov-15 01:59N 46°12' W 123°48'0 0.0
2017-Nov-15 01:29N 46°12' W 123°48'0 0.0
2017-Nov-15 00:59N 46°12' W 123°48'0 0.0
2017-Nov-15 00:29N 46°12' W 123°48'0 0.0
2017-Nov-14 23:59N 46°12' W 123°48'0 0.0
2017-Nov-14 23:29N 46°12' W 123°48'0 0.0
2017-Nov-14 22:59N 46°12' W 123°48'0 0.0
2017-Nov-14 22:29N 46°12' W 123°48'0 0.0
2017-Nov-14 21:59N 46°12' W 123°48'0 0.0
2017-Nov-14 21:29N 46°12' W 123°48'0 0.0
2017-Nov-14 20:59N 46°12' W 123°48'0 0.0
2017-Nov-14 20:29N 46°12' W 123°48'0 0.0
2017-Nov-14 19:59N 46°12' W 123°48'0 0.0
2017-Nov-14 19:26N 46°12' W 123°48'0 0.0
2017-Nov-14 18:59N 46°12' W 123°48'0 0.0
2017-Nov-14 18:29N 46°12' W 123°48'0 0.0
2017-Nov-14 17:59N 46°12' W 123°48'0 0.0
2017-Nov-14 17:29N 46°12' W 123°48'0 0.0
2017-Nov-14 16:59N 46°12' W 123°48'0 0.0
2017-Nov-14 16:29N 46°12' W 123°48'0 0.0
2017-Nov-14 15:59N 46°12' W 123°48'0 0.0
2017-Nov-14 15:29N 46°12' W 123°48'0 0.0
2017-Nov-14 14:59N 46°12' W 123°48'0 0.0
2017-Nov-14 14:29N 46°12' W 123°48'0 0.0
2017-Nov-14 13:47N 46°12' W 123°48'0 0.0
2017-Nov-14 13:29N 46°12' W 123°48'0 0.0
2017-Nov-14 12:59N 46°12' W 123°48'0 0.0
2017-Nov-14 12:29N 46°12' W 123°48'0 0.0
2017-Nov-14 11:59N 46°12' W 123°48'0 0.0
2017-Nov-14 11:29N 46°12' W 123°48'0 0.0
2017-Nov-14 10:59N 46°12' W 123°48'0 0.0
2017-Nov-14 10:29N 46°12' W 123°48'0 0.0
2017-Nov-14 09:59N 46°12' W 123°48'0 0.0
2017-Nov-14 09:29N 46°12' W 123°48'0 0.0
2017-Nov-14 08:20N 46°12' W 123°48'0 0.0
2017-Nov-14 07:59N 46°12' W 123°48'0 0.0
2017-Nov-14 07:29N 46°12' W 123°48'0 0.0
2017-Nov-14 06:59N 46°12' W 123°48'0 0.0
2017-Nov-14 06:29N 46°12' W 123°48'0 0.0
2017-Nov-14 05:59N 46°12' W 123°48'0 0.0
2017-Nov-14 05:29N 46°12' W 123°48'0 0.0
2017-Nov-14 04:59N 46°12' W 123°48'0 0.0
2017-Nov-14 04:29N 46°12' W 123°48'0 0.0
2017-Nov-14 03:59N 46°12' W 123°48'0 0.0
2017-Nov-14 03:29N 46°12' W 123°48'0 0.0
2017-Nov-14 02:59N 46°12' W 123°48'0 0.0
2017-Nov-14 02:29N 46°12' W 123°48'0 0.0
2017-Nov-14 01:59N 46°12' W 123°48'0 0.0
2017-Nov-14 01:29N 46°12' W 123°48'0 0.0
2017-Nov-14 00:59N 46°12' W 123°48'0 0.0
2017-Nov-14 00:29N 46°12' W 123°48'0 0.0
2017-Nov-13 23:59N 46°12' W 123°48'0 0.0
2017-Nov-13 23:29N 46°12' W 123°48'0 0.0
2017-Nov-13 22:59N 46°12' W 123°48'0 0.0
2017-Nov-13 22:29N 46°12' W 123°48'0 0.0
2017-Nov-13 21:50N 46°12' W 123°48'0 0.0
2017-Nov-13 01:59N 46°12' W 123°48'0 0.0
2017-Nov-13 01:29N 46°12' W 123°48'0 0.0
2017-Nov-13 00:59N 46°12' W 123°48'0 0.0
2017-Nov-13 00:29N 46°12' W 123°48'0 0.0
2017-Nov-13 00:00N 46°12' W 123°48'0 0.0
2017-Nov-12 23:29N 46°12' W 123°48'0 0.0
2017-Nov-12 22:59N 46°12' W 123°48'0 0.0
2017-Nov-12 22:29N 46°12' W 123°48'0 0.0
2017-Nov-12 21:59N 46°12' W 123°48'0 0.0
2017-Nov-12 21:29N 46°12' W 123°48'0 0.0
2017-Nov-12 20:59N 46°12' W 123°48'0 0.0
2017-Nov-12 20:29N 46°12' W 123°48'0 0.0
2017-Nov-12 19:59N 46°12' W 123°48'0 0.0
2017-Nov-12 19:29N 46°12' W 123°48'0 0.0
2017-Nov-12 18:59N 46°12' W 123°48'0 0.0
2017-Nov-12 18:29N 46°12' W 123°48'0 0.0
2017-Nov-12 17:59N 46°12' W 123°48'0 0.0
2017-Nov-12 17:29N 46°12' W 123°48'0 0.0
2017-Nov-12 16:59N 46°12' W 123°48'0 0.0
2017-Nov-12 16:29N 46°12' W 123°48'0 0.0
2017-Nov-12 15:59N 46°12' W 123°48'0 0.0
2017-Nov-12 15:29N 46°12' W 123°48'0 0.0
2017-Nov-12 14:59N 46°12' W 123°48'0 0.0
2017-Nov-12 14:29N 46°12' W 123°48'0 0.0
2017-Nov-12 13:59N 46°12' W 123°48'0 0.0
2017-Nov-12 13:29N 46°12' W 123°48'0 0.0
2017-Nov-12 12:59N 46°12' W 123°48'0 0.0
2017-Nov-12 12:29N 46°12' W 123°48'0 0.0
2017-Nov-12 11:59N 46°12' W 123°48'0 0.0
2017-Nov-12 11:29N 46°12' W 123°48'0 0.0
2017-Nov-12 10:39N 46°12' W 123°48'0 0.0
2017-Nov-12 10:29N 46°12' W 123°48'0 0.0
2017-Nov-12 09:59N 46°12' W 123°48'0 0.0
2017-Nov-12 09:30N 46°12' W 123°48'0 0.0
2017-Nov-12 08:59N 46°12' W 123°48'0 0.0
2017-Nov-12 08:29N 46°12' W 123°48'0 0.0
2017-Nov-12 07:53N 46°12' W 123°48'0 0.0
2017-Nov-12 07:29N 46°12' W 123°48'0 0.0
2017-Nov-12 07:00N 46°12' W 123°48'0 0.0
2017-Nov-12 06:26N 46°12' W 123°48'0 0.0
2017-Nov-12 05:57N 46°12' W 123°48'0 0.0
2017-Nov-12 05:29N 46°12' W 123°48'0 0.0
2017-Nov-12 04:59N 46°12' W 123°48'0 0.0
2017-Nov-12 04:29N 46°12' W 123°48'0 0.0
2017-Nov-12 03:59N 46°12' W 123°48'0 0.0
2017-Nov-12 03:30N 46°12' W 123°48'0 0.0
2017-Nov-12 02:59N 46°12' W 123°48'0 0.0
2017-Nov-12 02:30N 46°12' W 123°48'0 0.0
2017-Nov-12 01:59N 46°12' W 123°48'0 0.0
2017-Nov-12 01:30N 46°12' W 123°48'0 0.0
2017-Nov-12 01:00N 46°12' W 123°48'0 0.0
2017-Nov-12 00:30N 46°12' W 123°48'0 0.0
2017-Nov-12 00:00N 46°12' W 123°48'0 0.0
2017-Nov-11 23:30N 46°12' W 123°48'0 0.0
2017-Nov-11 23:00N 46°12' W 123°48'0 0.0
2017-Nov-11 22:30N 46°12' W 123°48'0 0.0
2017-Nov-11 22:00N 46°12' W 123°48'0 0.0
2017-Nov-11 21:30N 46°12' W 123°48'0 0.0
2017-Nov-11 21:00N 46°12' W 123°48'0 0.0
2017-Nov-11 20:30N 46°12' W 123°48'0 0.0
2017-Nov-11 20:00N 46°12' W 123°48'0 0.0
2017-Nov-11 19:30N 46°12' W 123°48'0 0.0
2017-Nov-11 19:00N 46°12' W 123°48'0 0.0
2017-Nov-11 18:30N 46°12' W 123°48'0 0.0
2017-Nov-11 18:00N 46°12' W 123°48'0 0.0
2017-Nov-11 17:27N 46°12' W 123°48'0 0.0
2017-Nov-11 17:00N 46°12' W 123°48'0 0.0
2017-Nov-11 16:30N 46°12' W 123°48'0 0.0
2017-Nov-11 16:00N 46°12' W 123°48'0 0.0
2017-Nov-11 15:30N 46°12' W 123°48'0 0.0
2017-Nov-11 14:48N 46°12' W 123°48'0 0.0
2017-Nov-11 14:21N 46°12' W 123°48'0 0.0
2017-Nov-11 14:00N 46°12' W 123°48'0 0.0
2017-Nov-11 13:30N 46°12' W 123°48'0 0.0
2017-Nov-11 13:00N 46°12' W 123°48'0 0.0
2017-Nov-11 12:30N 46°12' W 123°48'0 0.0
2017-Nov-11 12:00N 46°12' W 123°48'0 0.0
2017-Nov-11 11:30N 46°12' W 123°48'0 0.0
2017-Nov-11 11:00N 46°12' W 123°48'0 0.0
2017-Nov-11 10:30N 46°12' W 123°48'0 0.0
2017-Nov-11 10:00N 46°12' W 123°48'0 0.0
2017-Nov-11 09:30N 46°12' W 123°48'0 0.0
2017-Nov-11 08:45N 46°12' W 123°48'0 0.0
2017-Nov-11 08:30N 46°12' W 123°48'0 0.0
2017-Nov-11 08:00N 46°12' W 123°48'0 0.0
2017-Nov-11 07:30N 46°12' W 123°48'0 0.0
2017-Nov-11 07:00N 46°12' W 123°48'0 0.0
2017-Nov-11 06:30N 46°12' W 123°48'0 0.0
2017-Nov-11 05:54N 46°12' W 123°48'0 0.0
2017-Nov-11 05:30N 46°12' W 123°48'0 0.0
2017-Nov-11 05:00N 46°12' W 123°48'0 0.0
2017-Nov-11 04:30N 46°12' W 123°48'0 0.0
2017-Nov-11 04:00N 46°12' W 123°48'0 0.0
2017-Nov-11 03:30N 46°12' W 123°48'0 0.0
2017-Nov-11 03:00N 46°12' W 123°48'0 0.0
2017-Nov-11 02:30N 46°12' W 123°48'0 0.0
2017-Nov-11 02:00N 46°12' W 123°48'0 0.0
2017-Nov-11 01:30N 46°12' W 123°48'0 0.0
2017-Nov-11 01:00N 46°12' W 123°48'0 0.0
2017-Nov-11 00:30N 46°12' W 123°48'0 0.0
2017-Nov-11 00:00N 46°12' W 123°48'0 0.0
2017-Nov-10 23:30N 46°12' W 123°48'0 0.0
2017-Nov-10 23:00N 46°12' W 123°48'0 0.0
2017-Nov-10 22:30N 46°12' W 123°48'0 0.0
2017-Nov-10 22:00N 46°12' W 123°48'0 0.0
2017-Nov-10 21:30N 46°12' W 123°48'0 0.0
2017-Nov-10 21:00N 46°12' W 123°48'0 0.0
2017-Nov-10 20:30N 46°12' W 123°48'0 0.0
2017-Nov-10 20:00N 46°12' W 123°48'0 0.0
2017-Nov-10 19:30N 46°12' W 123°48'0 0.0
2017-Nov-10 19:00N 46°12' W 123°48'0 0.0
2017-Nov-10 18:30N 46°12' W 123°48'0 0.0
2017-Nov-10 18:00N 46°12' W 123°48'0 0.0
2017-Nov-10 17:30N 46°12' W 123°48'0 0.0
2017-Nov-10 17:00N 46°12' W 123°48'0 0.0
2017-Nov-10 16:30N 46°12' W 123°48'0 0.0
2017-Nov-10 16:00N 46°12' W 123°48'0 0.0
2017-Nov-10 15:30N 46°12' W 123°48'0 0.0
2017-Nov-10 15:00N 46°12' W 123°48'0 0.0
2017-Nov-10 14:30N 46°12' W 123°48'0 0.0
2017-Nov-10 14:00N 46°12' W 123°48'0 0.0
2017-Nov-10 13:30N 46°12' W 123°48'0 0.0
2017-Nov-10 13:00N 46°12' W 123°48'0 0.0
2017-Nov-10 12:27N 46°12' W 123°48'0 0.0
2017-Nov-10 12:00N 46°12' W 123°48'0 0.0
2017-Nov-10 11:30N 46°12' W 123°48'0 0.0
2017-Nov-10 11:00N 46°12' W 123°48'0 0.0
2017-Nov-10 10:30N 46°12' W 123°48'0 0.0
2017-Nov-10 09:39N 46°12' W 123°48'0 0.0
2017-Nov-10 09:30N 46°12' W 123°48'0 0.0
2017-Nov-10 09:00N 46°12' W 123°48'0 0.0
2017-Nov-10 08:30N 46°12' W 123°48'0 0.0
2017-Nov-10 08:00N 46°12' W 123°48'0 0.0
2017-Nov-10 07:30N 46°12' W 123°48'0 0.0
2017-Nov-10 07:00N 46°12' W 123°48'0 0.0
2017-Nov-10 06:30N 46°12' W 123°48'0 0.0
2017-Nov-10 06:00N 46°12' W 123°48'0 0.0
2017-Nov-10 05:30N 46°12' W 123°48'0 0.0
2017-Nov-10 05:00N 46°12' W 123°48'0 0.0
2017-Nov-10 04:30N 46°12' W 123°48'0 0.0
2017-Nov-10 04:00N 46°12' W 123°48'0 0.0
2017-Nov-10 03:15N 46°12' W 123°48'0 0.0
2017-Nov-10 03:00N 46°12' W 123°48'0 0.0
2017-Nov-10 02:09N 46°12' W 123°48'0 0.0
2017-Nov-10 02:00N 46°12' W 123°48'0 0.0
2017-Nov-10 01:30N 46°12' W 123°48'0 0.0
2017-Nov-10 01:00N 46°12' W 123°48'0 0.0
2017-Nov-10 00:27N 46°12' W 123°48'0 0.0
2017-Nov-10 00:00N 46°12' W 123°48'0 0.0
2017-Nov-09 23:30N 46°12' W 123°48'0 0.0
2017-Nov-09 23:00N 46°12' W 123°48'0 0.0
2017-Nov-09 22:18N 46°12' W 123°48'0 0.0
2017-Nov-09 22:00N 46°12' W 123°48'0 0.0
2017-Nov-09 21:30N 46°12' W 123°48'0 0.0
2017-Nov-09 21:00N 46°12' W 123°48'0 0.0
2017-Nov-09 20:30N 46°12' W 123°48'0 0.0
2017-Nov-09 20:00N 46°12' W 123°48'0 0.0
2017-Nov-09 19:30N 46°12' W 123°48'0 0.0
2017-Nov-09 19:00N 46°12' W 123°48'0 0.0
2017-Nov-09 18:30N 46°12' W 123°48'0 0.0
2017-Nov-09 18:00N 46°12' W 123°48'0 0.0
2017-Nov-09 17:30N 46°12' W 123°48'0 0.0
2017-Nov-09 17:00N 46°12' W 123°48'0 0.0
2017-Nov-09 16:30N 46°12' W 123°48'0 0.0
2017-Nov-09 15:57N 46°12' W 123°48'0 0.0
2017-Nov-09 15:30N 46°12' W 123°48'0 0.0
2017-Nov-09 15:00N 46°12' W 123°48'0 0.0
2017-Nov-09 14:30N 46°12' W 123°48'  
Track history (hours):
 
Tides and Currents Weather Stations Pressure Air Temp Water Temp Dewpoint Dewpoint Depression Visibility Wind Speed Wind Dir Waves Ship Positions

Ocean Beaut

Owner: John Moreland Fishing Inc., Astoria, OR. More information available from US FCC via Universal Licensing System.

Last reported at 2017-Nov-19 13:59 UTC. Time now 2017-Nov-19 14:22 UTC.
Position N 46°12' W 123°48'.

Length 20 m.

Type: Fishing. MMSI: 367187080.

Date/timePositionNaut miles runAvg speedWind from/ knotsBaromVisibWave heightAir tempDewpointWater temp
2017-Nov-19 13:59N 46°12' W 123°48'0 0.0
2017-Nov-19 13:29N 46°12' W 123°48'0 0.0
2017-Nov-19 12:59N 46°12' W 123°48'0 0.0
2017-Nov-19 12:29N 46°12' W 123°48'0 0.0
2017-Nov-19 11:59N 46°12' W 123°48'0 0.0
2017-Nov-19 11:29N 46°12' W 123°48'0 0.0
2017-Nov-19 10:59N 46°12' W 123°48'0 0.0
2017-Nov-19 10:29N 46°12' W 123°48'0 0.0
2017-Nov-19 09:59N 46°12' W 123°48'0 0.0
2017-Nov-19 09:17N 46°12' W 123°48'0 0.0
2017-Nov-19 08:59N 46°12' W 123°48'0 0.0
2017-Nov-19 08:29N 46°12' W 123°48'0 0.0
2017-Nov-19 07:59N 46°12' W 123°48'0 0.0
2017-Nov-19 07:29N 46°12' W 123°48'0 0.0
2017-Nov-19 06:59N 46°12' W 123°48'0 0.0
2017-Nov-19 06:29N 46°12' W 123°48'0 0.0
2017-Nov-19 05:59N 46°12' W 123°48'0 0.0
2017-Nov-19 05:29N 46°12' W 123°48'0 0.0
2017-Nov-19 04:59N 46°12' W 123°48'0 0.0
2017-Nov-19 04:29N 46°12' W 123°48'0 0.0
2017-Nov-19 03:59N 46°12' W 123°48'0 0.0
2017-Nov-19 03:29N 46°12' W 123°48'0 0.0
2017-Nov-19 02:59N 46°12' W 123°48'0 0.0
2017-Nov-19 02:30N 46°12' W 123°48'0 0.0
2017-Nov-19 01:59N 46°12' W 123°48'0 0.0
2017-Nov-19 01:29N 46°12' W 123°48'0 0.0
2017-Nov-19 00:59N 46°12' W 123°48'0 0.0
2017-Nov-19 00:29N 46°12' W 123°48'0 0.0
2017-Nov-19 00:00N 46°12' W 123°48'0 0.0
2017-Nov-18 23:29N 46°12' W 123°48'0 0.0
2017-Nov-18 22:59N 46°12' W 123°48'0 0.0
2017-Nov-18 22:29N 46°12' W 123°48'0 0.0
2017-Nov-18 21:59N 46°12' W 123°48'0 0.0
2017-Nov-18 21:29N 46°12' W 123°48'0 0.0
2017-Nov-18 20:56N 46°12' W 123°48'0 1.1
2017-Nov-18 20:30N 46°12' W 123°49'3 6.1
2017-Nov-18 20:00N 46°11' W 123°53'4 7.6
2017-Nov-18 19:30N 46°13' W 123°58'4 8.9
2017-Nov-18 19:00N 46°15' W 124°04'4 8.5
2017-Nov-18 18:30N 46°13' W 124°09'4 7.5
2017-Nov-18 18:00N 46°11' W 124°14'4 8.0
2017-Nov-18 17:30N 46°10' W 124°19'4 8.1
2017-Nov-18 17:00N 46°09' W 124°25'6 8.0
2017-Nov-18 16:17N 46°08' W 124°33'2 7.9
2017-Nov-18 16:00N 46°08' W 124°36'4 7.9
2017-Nov-18 15:30N 46°07' W 124°42'4 7.7
2017-Nov-18 15:00N 46°06' W 124°47'2 4.5
2017-Nov-18 14:30N 46°05' W 124°50'0 0.9
2017-Nov-18 14:00N 46°05' W 124°51'1 2.1
2017-Nov-18 13:28N 46°04' W 124°51'1 2.3
2017-Nov-18 12:50N 46°02' W 124°51'1 2.2
2017-Nov-18 12:30N 46°02' W 124°50'1 2.2
2017-Nov-18 11:58N 46°00' W 124°50'1 2.3
2017-Nov-18 11:30N 45°59' W 124°49'1 2.2
2017-Nov-18 11:00N 45°58' W 124°48'1 2.2
2017-Nov-18 10:30N 45°58' W 124°47'1 2.2
2017-Nov-18 10:00N 45°57' W 124°46'1 2.3
2017-Nov-18 09:24N 45°56' W 124°45'1 2.3
2017-Nov-18 09:00N 45°55' W 124°46'1 2.3
2017-Nov-18 08:31N 45°54' W 124°46'1 2.2
2017-Nov-18 08:00N 45°53' W 124°46'2 3.5
2017-Nov-18 07:30N 45°51' W 124°46'1 2.1
2017-Nov-18 06:59N 45°50' W 124°46'0 0.5
2017-Nov-18 06:30N 45°50' W 124°45'1 2.3
2017-Nov-18 05:57N 45°49' W 124°46'1 2.3
2017-Nov-18 05:29N 45°48' W 124°46'1 2.2
2017-Nov-18 04:59N 45°47' W 124°45'1 2.4
2017-Nov-18 04:30N 45°45' W 124°46'1 2.4
2017-Nov-18 03:59N 45°44' W 124°46'1 2.3
2017-Nov-18 03:30N 45°43' W 124°46'1 2.3
2017-Nov-18 03:00N 45°42' W 124°45'1 2.3
2017-Nov-18 02:30N 45°42' W 124°44'1 2.8
2017-Nov-18 02:00N 45°41' W 124°42'2 3.2
2017-Nov-18 01:15N 45°38' W 124°43'12 1.7
2017-Nov-17 18:30N 45°50' W 124°46'2 4.6
2017-Nov-17 18:00N 45°52' W 124°45'0 0.4
2017-Nov-17 17:25N 45°52' W 124°46'1 1.6
2017-Nov-17 17:00N 45°53' W 124°46'1 2.0
2017-Nov-17 16:16N 45°54' W 124°46'1 2.1
2017-Nov-17 15:55N 45°55' W 124°46'1 2.2
2017-Nov-17 15:30N 45°56' W 124°45'1 2.0
2017-Nov-17 14:47N 45°57' W 124°46'1 2.2
2017-Nov-17 14:13N 45°58' W 124°47'1 2.3
2017-Nov-17 14:00N 45°59' W 124°47'1 2.5
2017-Nov-17 13:30N 45°60' W 124°48'1 2.3
2017-Nov-17 12:59N 46°01' W 124°49'1 2.3
2017-Nov-17 12:31N 46°02' W 124°50'1 2.5
2017-Nov-17 12:00N 46°03' W 124°51'1 2.3
2017-Nov-17 11:30N 46°04' W 124°51'8 6.7
2017-Nov-17 10:15N 46°12' W 124°46'2 7.5
2017-Nov-17 10:00N 46°14' W 124°46'4 7.2
2017-Nov-17 09:30N 46°17' W 124°44'4 6.9
2017-Nov-17 08:52N 46°21' W 124°42'2 6.9
2017-Nov-17 08:30N 46°23' W 124°41'3 6.8
2017-Nov-17 08:00N 46°27' W 124°39'3 6.6
2017-Nov-17 07:30N 46°30' W 124°37'3 6.4
2017-Nov-17 07:00N 46°32' W 124°35'0 0.9
2017-Nov-17 06:30N 46°33' W 124°35'1 1.4
2017-Nov-17 05:59N 46°33' W 124°36'1 2.3
2017-Nov-17 05:30N 46°32' W 124°37'1 2.2
2017-Nov-17 05:00N 46°31' W 124°38'1 2.2
2017-Nov-17 04:30N 46°30' W 124°39'1 2.2
2017-Nov-17 04:00N 46°31' W 124°41'1 2.1
2017-Nov-17 03:28N 46°32' W 124°41'1 2.3
2017-Nov-17 03:01N 46°33' W 124°41'1 2.7
2017-Nov-17 02:30N 46°34' W 124°40'0 0.9
2017-Nov-17 02:00N 46°34' W 124°40'1 2.1
2017-Nov-17 01:30N 46°33' W 124°41'1 2.3
2017-Nov-17 01:00N 46°32' W 124°42'1 2.2
2017-Nov-17 00:26N 46°31' W 124°41'1 2.3
2017-Nov-16 23:59N 46°30' W 124°40'2 3.4
2017-Nov-16 23:30N 46°29' W 124°39'4 7.9
2017-Nov-16 22:59N 46°26' W 124°34'4 8.8
2017-Nov-16 22:30N 46°24' W 124°29'5 9.0
2017-Nov-16 22:00N 46°22' W 124°23'4 8.7
2017-Nov-16 21:30N 46°19' W 124°18'4 8.7
2017-Nov-16 21:00N 46°16' W 124°13'4 8.1
2017-Nov-16 20:30N 46°14' W 124°09'4 8.1
2017-Nov-16 20:00N 46°15' W 124°03'4 8.0
2017-Nov-16 19:30N 46°14' W 123°58'4 7.9
2017-Nov-16 19:01N 46°12' W 123°53'1 2.6
2017-Nov-16 18:30N 46°11' W 123°51'0 0.0
2017-Nov-16 17:59N 46°11' W 123°51'1 1.6
2017-Nov-16 17:28N 46°12' W 123°50'0 0.0
2017-Nov-16 17:01N 46°12' W 123°50'2 2.9
2017-Nov-16 16:29N 46°12' W 123°48'0 0.0
2017-Nov-16 15:59N 46°12' W 123°48'0 0.0
2017-Nov-16 15:26N 46°12' W 123°48'0 0.0
2017-Nov-16 14:59N 46°12' W 123°48'0 0.0
2017-Nov-16 14:29N 46°12' W 123°48'0 0.0
2017-Nov-16 13:59N 46°12' W 123°48'0 0.0
2017-Nov-16 13:29N 46°12' W 123°48'0 0.0
2017-Nov-16 12:59N 46°12' W 123°48'0 0.0
2017-Nov-16 12:29N 46°12' W 123°48'0 0.0
2017-Nov-16 11:59N 46°12' W 123°48'0 0.0
2017-Nov-16 11:29N 46°12' W 123°48'0 0.0
2017-Nov-16 10:53N 46°12' W 123°48'0 0.0
2017-Nov-16 10:29N 46°12' W 123°48'0 0.0
2017-Nov-16 09:59N 46°12' W 123°48'0 0.0
2017-Nov-16 09:29N 46°12' W 123°48'0 0.0
2017-Nov-16 08:59N 46°12' W 123°48'0 0.0
2017-Nov-16 08:29N 46°12' W 123°48'0 0.0
2017-Nov-16 07:59N 46°12' W 123°48'0 0.0
2017-Nov-16 07:29N 46°12' W 123°48'0 0.0
2017-Nov-16 06:53N 46°12' W 123°48'0 0.0
2017-Nov-16 06:29N 46°12' W 123°48'0 0.0
2017-Nov-16 05:59N 46°12' W 123°48'0 0.0
2017-Nov-16 05:26N 46°12' W 123°48'0 0.0
2017-Nov-16 04:59N 46°12' W 123°48'0 0.0
2017-Nov-16 04:29N 46°12' W 123°48'0 0.0
2017-Nov-16 03:59N 46°12' W 123°48'0 0.0
2017-Nov-16 03:29N 46°12' W 123°48'0 0.0
2017-Nov-16 02:59N 46°12' W 123°48'0 0.0
2017-Nov-16 02:29N 46°12' W 123°48'0 0.0
2017-Nov-16 01:59N 46°12' W 123°48'0 0.0
2017-Nov-16 01:29N 46°12' W 123°48'0 0.0
2017-Nov-16 00:59N 46°12' W 123°48'0 0.0
2017-Nov-16 00:29N 46°12' W 123°48'0 0.0
2017-Nov-15 23:59N 46°12' W 123°48'0 0.0
2017-Nov-15 23:29N 46°12' W 123°48'0 0.0
2017-Nov-15 22:59N 46°12' W 123°48'0 0.0
2017-Nov-15 22:29N 46°12' W 123°48'0 0.0
2017-Nov-15 21:59N 46°12' W 123°48'0 0.0
2017-Nov-15 21:17N 46°12' W 123°48'0 0.0
2017-Nov-15 20:59N 46°12' W 123°48'0 0.0
2017-Nov-15 20:29N 46°12' W 123°48'0 0.0
2017-Nov-15 19:59N 46°12' W 123°48'0 0.0
2017-Nov-15 19:20N 46°12' W 123°48'0 0.0
2017-Nov-15 18:53N 46°12' W 123°48'0 0.0
2017-Nov-15 18:29N 46°12' W 123°48'0 0.0
2017-Nov-15 17:59N 46°12' W 123°48'0 0.0
2017-Nov-15 17:20N 46°12' W 123°48'0 0.0
2017-Nov-15 16:59N 46°12' W 123°48'0 0.0
2017-Nov-15 16:26N 46°12' W 123°48'0 0.0
2017-Nov-15 15:59N 46°12' W 123°48'0 0.0
2017-Nov-15 15:29N 46°12' W 123°48'0 0.0
2017-Nov-15 14:59N 46°12' W 123°48'0 0.0
2017-Nov-15 14:29N 46°12' W 123°48'0 0.0
2017-Nov-15 13:59N 46°12' W 123°48'0 0.0
2017-Nov-15 13:29N 46°12' W 123°48'0 0.0
2017-Nov-15 12:59N 46°12' W 123°48'0 0.0
2017-Nov-15 12:29N 46°12' W 123°48'0 0.0
2017-Nov-15 11:59N 46°12' W 123°48'0 0.0
2017-Nov-15 11:29N 46°12' W 123°48'0 0.0
2017-Nov-15 10:59N 46°12' W 123°48'0 0.0
2017-Nov-15 10:29N 46°12' W 123°48'0 0.0
2017-Nov-15 09:59N 46°12' W 123°48'0 0.0
2017-Nov-15 09:29N 46°12' W 123°48'0 0.0
2017-Nov-15 08:59N 46°12' W 123°48'0 0.0
2017-Nov-15 08:29N 46°12' W 123°48'0 0.0
2017-Nov-15 07:59N 46°12' W 123°48'0 0.0
2017-Nov-15 07:29N 46°12' W 123°48'0 0.0
2017-Nov-15 06:56N 46°12' W 123°48'0 0.0
2017-Nov-15 06:29N 46°12' W 123°48'0 0.0
2017-Nov-15 05:56N 46°12' W 123°48'0 0.0
2017-Nov-15 05:29N 46°12' W 123°48'0 0.0
2017-Nov-15 04:59N 46°12' W 123°48'0 0.0
2017-Nov-15 04:29N 46°12' W 123°48'0 0.0
2017-Nov-15 03:59N 46°12' W 123°48'0 0.0
2017-Nov-15 03:29N 46°12' W 123°48'0 0.0
2017-Nov-15 02:59N 46°12' W 123°48'0 0.0
2017-Nov-15 02:14N 46°12' W 123°48'0 0.0
2017-Nov-15 01:59N 46°12' W 123°48'0 0.0
2017-Nov-15 01:29N 46°12' W 123°48'0 0.0
2017-Nov-15 00:59N 46°12' W 123°48'0 0.0
2017-Nov-15 00:29N 46°12' W 123°48'0 0.0
2017-Nov-14 23:59N 46°12' W 123°48'0 0.0
2017-Nov-14 23:29N 46°12' W 123°48'0 0.0
2017-Nov-14 22:59N 46°12' W 123°48'0 0.0
2017-Nov-14 22:29N 46°12' W 123°48'0 0.0
2017-Nov-14 21:59N 46°12' W 123°48'0 0.0
2017-Nov-14 21:29N 46°12' W 123°48'0 0.0
2017-Nov-14 20:59N 46°12' W 123°48'0 0.0
2017-Nov-14 20:29N 46°12' W 123°48'0 0.0
2017-Nov-14 19:59N 46°12' W 123°48'0 0.0
2017-Nov-14 19:26N 46°12' W 123°48'0 0.0
2017-Nov-14 18:59N 46°12' W 123°48'0 0.0
2017-Nov-14 18:29N 46°12' W 123°48'0 0.0
2017-Nov-14 17:59N 46°12' W 123°48'0 0.0
2017-Nov-14 17:29N 46°12' W 123°48'0 0.0
2017-Nov-14 16:59N 46°12' W 123°48'0 0.0
2017-Nov-14 16:29N 46°12' W 123°48'0 0.0
2017-Nov-14 15:59N 46°12' W 123°48'0 0.0
2017-Nov-14 15:29N 46°12' W 123°48'0 0.0
2017-Nov-14 14:59N 46°12' W 123°48'0 0.0
2017-Nov-14 14:29N 46°12' W 123°48'0 0.0
2017-Nov-14 13:47N 46°12' W 123°48'0 0.0
2017-Nov-14 13:29N 46°12' W 123°48'0 0.0
2017-Nov-14 12:59N 46°12' W 123°48'0 0.0
2017-Nov-14 12:29N 46°12' W 123°48'0 0.0
2017-Nov-14 11:59N 46°12' W 123°48'0 0.0
2017-Nov-14 11:29N 46°12' W 123°48'0 0.0
2017-Nov-14 10:59N 46°12' W 123°48'0 0.0
2017-Nov-14 10:29N 46°12' W 123°48'0 0.0
2017-Nov-14 09:59N 46°12' W 123°48'0 0.0
2017-Nov-14 09:29N 46°12' W 123°48'0 0.0
2017-Nov-14 08:20N 46°12' W 123°48'0 0.0
2017-Nov-14 07:59N 46°12' W 123°48'0 0.0
2017-Nov-14 07:29N 46°12' W 123°48'0 0.0
2017-Nov-14 06:59N 46°12' W 123°48'0 0.0
2017-Nov-14 06:29N 46°12' W 123°48'0 0.0
2017-Nov-14 05:59N 46°12' W 123°48'0 0.0
2017-Nov-14 05:29N 46°12' W 123°48'0 0.0
2017-Nov-14 04:59N 46°12' W 123°48'0 0.0
2017-Nov-14 04:29N 46°12' W 123°48'0 0.0
2017-Nov-14 03:59N 46°12' W 123°48'0 0.0
2017-Nov-14 03:29N 46°12' W 123°48'0 0.0
2017-Nov-14 02:59N 46°12' W 123°48'0 0.0
2017-Nov-14 02:29N 46°12' W 123°48'0 0.0
2017-Nov-14 01:59N 46°12' W 123°48'0 0.0
2017-Nov-14 01:29N 46°12' W 123°48'0 0.0
2017-Nov-14 00:59N 46°12' W 123°48'0 0.0
2017-Nov-14 00:29N 46°12' W 123°48'0 0.0
2017-Nov-13 23:59N 46°12' W 123°48'0 0.0
2017-Nov-13 23:29N 46°12' W 123°48'0 0.0
2017-Nov-13 22:59N 46°12' W 123°48'0 0.0
2017-Nov-13 22:29N 46°12' W 123°48'0 0.0
2017-Nov-13 21:50N 46°12' W 123°48'0 0.0
2017-Nov-13 01:59N 46°12' W 123°48'0 0.0
2017-Nov-13 01:29N 46°12' W 123°48'0 0.0
2017-Nov-13 00:59N 46°12' W 123°48'0 0.0
2017-Nov-13 00:29N 46°12' W 123°48'0 0.0
2017-Nov-13 00:00N 46°12' W 123°48'0 0.0
2017-Nov-12 23:29N 46°12' W 123°48'0 0.0
2017-Nov-12 22:59N 46°12' W 123°48'0 0.0
2017-Nov-12 22:29N 46°12' W 123°48'0 0.0
2017-Nov-12 21:59N 46°12' W 123°48'0 0.0
2017-Nov-12 21:29N 46°12' W 123°48'0 0.0
2017-Nov-12 20:59N 46°12' W 123°48'0 0.0
2017-Nov-12 20:29N 46°12' W 123°48'0 0.0
2017-Nov-12 19:59N 46°12' W 123°48'0 0.0
2017-Nov-12 19:29N 46°12' W 123°48'0 0.0
2017-Nov-12 18:59N 46°12' W 123°48'0 0.0
2017-Nov-12 18:29N 46°12' W 123°48'0 0.0
2017-Nov-12 17:59N 46°12' W 123°48'0 0.0
2017-Nov-12 17:29N 46°12' W 123°48'0 0.0
2017-Nov-12 16:59N 46°12' W 123°48'0 0.0
2017-Nov-12 16:29N 46°12' W 123°48'0 0.0
2017-Nov-12 15:59N 46°12' W 123°48'0 0.0
2017-Nov-12 15:29N 46°12' W 123°48'0 0.0
2017-Nov-12 14:59N 46°12' W 123°48'0 0.0
2017-Nov-12 14:29N 46°12' W 123°48'0 0.0
2017-Nov-12 13:59N 46°12' W 123°48'0 0.0
2017-Nov-12 13:29N 46°12' W 123°48'0 0.0
2017-Nov-12 12:59N 46°12' W 123°48'0 0.0
2017-Nov-12 12:29N 46°12' W 123°48'0 0.0
2017-Nov-12 11:59N 46°12' W 123°48'0 0.0
2017-Nov-12 11:29N 46°12' W 123°48'0 0.0
2017-Nov-12 10:39N 46°12' W 123°48'0 0.0
2017-Nov-12 10:29N 46°12' W 123°48'0 0.0
2017-Nov-12 09:59N 46°12' W 123°48'0 0.0
2017-Nov-12 09:30N 46°12' W 123°48'0 0.0
2017-Nov-12 08:59N 46°12' W 123°48'0 0.0
2017-Nov-12 08:29N 46°12' W 123°48'0 0.0
2017-Nov-12 07:53N 46°12' W 123°48'0 0.0
2017-Nov-12 07:29N 46°12' W 123°48'0 0.0
2017-Nov-12 07:00N 46°12' W 123°48'0 0.0
2017-Nov-12 06:26N 46°12' W 123°48'0 0.0
2017-Nov-12 05:57N 46°12' W 123°48'0 0.0
2017-Nov-12 05:29N 46°12' W 123°48'0 0.0
2017-Nov-12 04:59N 46°12' W 123°48'0 0.0
2017-Nov-12 04:29N 46°12' W 123°48'0 0.0
2017-Nov-12 03:59N 46°12' W 123°48'0 0.0
2017-Nov-12 03:30N 46°12' W 123°48'0 0.0
2017-Nov-12 02:59N 46°12' W 123°48'0 0.0
2017-Nov-12 02:30N 46°12' W 123°48'0 0.0
2017-Nov-12 01:59N 46°12' W 123°48'0 0.0
2017-Nov-12 01:30N 46°12' W 123°48'0 0.0
2017-Nov-12 01:00N 46°12' W 123°48'0 0.0
2017-Nov-12 00:30N 46°12' W 123°48'0 0.0
2017-Nov-12 00:00N 46°12' W 123°48'0 0.0
2017-Nov-11 23:30N 46°12' W 123°48'0 0.0
2017-Nov-11 23:00N 46°12' W 123°48'0 0.0
2017-Nov-11 22:30N 46°12' W 123°48'0 0.0
2017-Nov-11 22:00N 46°12' W 123°48'0 0.0
2017-Nov-11 21:30N 46°12' W 123°48'0 0.0
2017-Nov-11 21:00N 46°12' W 123°48'0 0.0
2017-Nov-11 20:30N 46°12' W 123°48'0 0.0
2017-Nov-11 20:00N 46°12' W 123°48'0 0.0
2017-Nov-11 19:30N 46°12' W 123°48'0 0.0
2017-Nov-11 19:00N 46°12' W 123°48'0 0.0
2017-Nov-11 18:30N 46°12' W 123°48'0 0.0
2017-Nov-11 18:00N 46°12' W 123°48'0 0.0
2017-Nov-11 17:27N 46°12' W 123°48'0 0.0
2017-Nov-11 17:00N 46°12' W 123°48'0 0.0
2017-Nov-11 16:30N 46°12' W 123°48'0 0.0
2017-Nov-11 16:00N 46°12' W 123°48'0 0.0
2017-Nov-11 15:30N 46°12' W 123°48'0 0.0
2017-Nov-11 14:48N 46°12' W 123°48'0 0.0
2017-Nov-11 14:21N 46°12' W 123°48'0 0.0
2017-Nov-11 14:00N 46°12' W 123°48'0 0.0
2017-Nov-11 13:30N 46°12' W 123°48'0 0.0
2017-Nov-11 13:00N 46°12' W 123°48'0 0.0
2017-Nov-11 12:30N 46°12' W 123°48'0 0.0
2017-Nov-11 12:00N 46°12' W 123°48'0 0.0
2017-Nov-11 11:30N 46°12' W 123°48'0 0.0
2017-Nov-11 11:00N 46°12' W 123°48'0 0.0
2017-Nov-11 10:30N 46°12' W 123°48'0 0.0
2017-Nov-11 10:00N 46°12' W 123°48'0 0.0
2017-Nov-11 09:30N 46°12' W 123°48'0 0.0
2017-Nov-11 08:45N 46°12' W 123°48'0 0.0
2017-Nov-11 08:30N 46°12' W 123°48'0 0.0
2017-Nov-11 08:00N 46°12' W 123°48'0 0.0
2017-Nov-11 07:30N 46°12' W 123°48'0 0.0
2017-Nov-11 07:00N 46°12' W 123°48'0 0.0
2017-Nov-11 06:30N 46°12' W 123°48'0 0.0
2017-Nov-11 05:54N 46°12' W 123°48'0 0.0
2017-Nov-11 05:30N 46°12' W 123°48'0 0.0
2017-Nov-11 05:00N 46°12' W 123°48'0 0.0
2017-Nov-11 04:30N 46°12' W 123°48'0 0.0
2017-Nov-11 04:00N 46°12' W 123°48'0 0.0
2017-Nov-11 03:30N 46°12' W 123°48'0 0.0
2017-Nov-11 03:00N 46°12' W 123°48'0 0.0
2017-Nov-11 02:30N 46°12' W 123°48'0 0.0
2017-Nov-11 02:00N 46°12' W 123°48'0 0.0
2017-Nov-11 01:30N 46°12' W 123°48'0 0.0
2017-Nov-11 01:00N 46°12' W 123°48'0 0.0
2017-Nov-11 00:30N 46°12' W 123°48'0 0.0
2017-Nov-11 00:00N 46°12' W 123°48'0 0.0
2017-Nov-10 23:30N 46°12' W 123°48'0 0.0
2017-Nov-10 23:00N 46°12' W 123°48'0 0.0
2017-Nov-10 22:30N 46°12' W 123°48'0 0.0
2017-Nov-10 22:00N 46°12' W 123°48'0 0.0
2017-Nov-10 21:30N 46°12' W 123°48'0 0.0
2017-Nov-10 21:00N 46°12' W 123°48'0 0.0
2017-Nov-10 20:30N 46°12' W 123°48'0 0.0
2017-Nov-10 20:00N 46°12' W 123°48'0 0.0
2017-Nov-10 19:30N 46°12' W 123°48'0 0.0
2017-Nov-10 19:00N 46°12' W 123°48'0 0.0
2017-Nov-10 18:30N 46°12' W 123°48'0 0.0
2017-Nov-10 18:00N 46°12' W 123°48'0 0.0
2017-Nov-10 17:30N 46°12' W 123°48'0 0.0
2017-Nov-10 17:00N 46°12' W 123°48'0 0.0
2017-Nov-10 16:30N 46°12' W 123°48'0 0.0
2017-Nov-10 16:00N 46°12' W 123°48'0 0.0
2017-Nov-10 15:30N 46°12' W 123°48'0 0.0
2017-Nov-10 15:00N 46°12' W 123°48'0 0.0
2017-Nov-10 14:30N 46°12' W 123°48'0 0.0
2017-Nov-10 14:00N 46°12' W 123°48'0 0.0
2017-Nov-10 13:30N 46°12' W 123°48'0 0.0
2017-Nov-10 13:00N 46°12' W 123°48'0 0.0
2017-Nov-10 12:27N 46°12' W 123°48'0 0.0
2017-Nov-10 12:00N 46°12' W 123°48'0 0.0
2017-Nov-10 11:30N 46°12' W 123°48'0 0.0
2017-Nov-10 11:00N 46°12' W 123°48'0 0.0
2017-Nov-10 10:30N 46°12' W 123°48'0 0.0
2017-Nov-10 09:39N 46°12' W 123°48'0 0.0
2017-Nov-10 09:30N 46°12' W 123°48'0 0.0
2017-Nov-10 09:00N 46°12' W 123°48'0 0.0
2017-Nov-10 08:30N 46°12' W 123°48'0 0.0
2017-Nov-10 08:00N 46°12' W 123°48'0 0.0
2017-Nov-10 07:30N 46°12' W 123°48'0 0.0
2017-Nov-10 07:00N 46°12' W 123°48'0 0.0
2017-Nov-10 06:30N 46°12' W 123°48'0 0.0
2017-Nov-10 06:00N 46°12' W 123°48'0 0.0
2017-Nov-10 05:30N 46°12' W 123°48'0 0.0
2017-Nov-10 05:00N 46°12' W 123°48'0 0.0
2017-Nov-10 04:30N 46°12' W 123°48'0 0.0
2017-Nov-10 04:00N 46°12' W 123°48'0 0.0
2017-Nov-10 03:15N 46°12' W 123°48'0 0.0
2017-Nov-10 03:00N 46°12' W 123°48'0 0.0
2017-Nov-10 02:09N 46°12' W 123°48'0 0.0
2017-Nov-10 02:00N 46°12' W 123°48'0 0.0
2017-Nov-10 01:30N 46°12' W 123°48'0 0.0
2017-Nov-10 01:00N 46°12' W 123°48'0 0.0
2017-Nov-10 00:27N 46°12' W 123°48'0 0.0
2017-Nov-10 00:00N 46°12' W 123°48'0 0.0
2017-Nov-09 23:30N 46°12' W 123°48'0 0.0
2017-Nov-09 23:00N 46°12' W 123°48'0 0.0
2017-Nov-09 22:18N 46°12' W 123°48'0 0.0
2017-Nov-09 22:00N 46°12' W 123°48'0 0.0
2017-Nov-09 21:30N 46°12' W 123°48'0 0.0
2017-Nov-09 21:00N 46°12' W 123°48'0 0.0
2017-Nov-09 20:30N 46°12' W 123°48'0 0.0
2017-Nov-09 20:00N 46°12' W 123°48'0 0.0
2017-Nov-09 19:30N 46°12' W 123°48'0 0.0
2017-Nov-09 19:00N 46°12' W 123°48'0 0.0
2017-Nov-09 18:30N 46°12' W 123°48'0 0.0
2017-Nov-09 18:00N 46°12' W 123°48'0 0.0
2017-Nov-09 17:30N 46°12' W 123°48'0 0.0
2017-Nov-09 17:00N 46°12' W 123°48'0 0.0
2017-Nov-09 16:30N 46°12' W 123°48'0 0.0
2017-Nov-09 15:57N 46°12' W 123°48'0 0.0
2017-Nov-09 15:30N 46°12' W 123°48'0 0.0
2017-Nov-09 15:00N 46°12' W 123°48'0 0.0
2017-Nov-09 14:30N 46°12' W 123°48'  

Dump ship's entire track history